createdAt,value
2022-12-15T00:02:15.486Z,98931.63
2022-12-15T00:05:22.744Z,98926.44
2022-12-15T00:08:29.662Z,98924.94
2022-12-15T00:11:36.664Z,98923.63
2022-12-15T00:14:44.072Z,98913.91
2022-12-15T00:17:51.509Z,98910.38
2022-12-15T00:20:51.751Z,98911.31
2022-12-15T00:23:58.610Z,98907.66
2022-12-15T00:26:59.463Z,98919.19
2022-12-15T00:30:06.752Z,98914.00
2022-12-15T00:33:07.514Z,98915.66
2022-12-15T00:36:14.733Z,98924.44
2022-12-15T00:39:01.959Z,98923.78
2022-12-15T00:41:52.846Z,98932.31
2022-12-15T00:44:34.993Z,98933.81
2022-12-15T00:47:23.792Z,98937.03
2022-12-15T00:50:30.791Z,98941.47
2022-12-15T00:53:31.306Z,98931.94
2022-12-15T00:56:39.724Z,98932.50
2022-12-15T00:59:40.122Z,98924.94
2022-12-15T01:02:46.929Z,98933.81
2022-12-15T01:05:53.689Z,98937.25
2022-12-15T01:08:54.643Z,98954.94
2022-12-15T01:12:01.673Z,98954.34
2022-12-15T01:15:08.740Z,98959.13
2022-12-15T01:18:09.319Z,98962.31
2022-12-15T01:20:57.691Z,98966.88
2022-12-15T01:23:47.025Z,98977.63
2022-12-15T01:26:28.694Z,98977.44
2022-12-15T01:29:18.101Z,98984.69
2022-12-15T01:31:59.865Z,98981.03
2022-12-15T01:34:42.157Z,98981.28
2022-12-15T01:37:30.781Z,98985.50
2022-12-15T01:40:36.418Z,98993.53
2022-12-15T01:43:50.723Z,98993.16
2022-12-15T01:46:45.713Z,98996.06
2022-12-15T01:49:40.047Z,98999.31
2022-12-15T01:52:23.028Z,99002.34
2022-12-15T01:55:11.781Z,99011.41
2022-12-15T01:57:56.008Z,99016.75
2022-12-15T02:00:44.790Z,99023.22
2022-12-15T02:03:27.178Z,99029.78
2022-12-15T02:06:16.839Z,99034.69
2022-12-15T02:09:04.081Z,99039.34
2022-12-15T02:12:01.738Z,99040.03
2022-12-15T02:15:19.725Z,99047.44
2022-12-15T02:18:28.167Z,99049.72
2022-12-15T02:21:28.719Z,99056.88
2022-12-15T02:24:49.572Z,99051.47
2022-12-15T02:27:46.986Z,99071.28
2022-12-15T02:30:37.777Z,99067.25
2022-12-15T02:33:32.430Z,99062.31
2022-12-15T02:36:34.716Z,99058.72
2022-12-15T02:39:20.032Z,99060.50
2022-12-15T02:42:08.760Z,99053.63
2022-12-15T02:45:00.440Z,99057.94
2022-12-15T02:48:06.749Z,99062.38
2022-12-15T02:51:23.004Z,99065.22
2022-12-15T02:54:26.637Z,99068.88
2022-12-15T02:57:19.042Z,99080.91
2022-12-15T03:00:16.774Z,99089.53
2022-12-15T03:03:04.674Z,99076.72
2022-12-15T03:05:54.795Z,99092.44
2022-12-15T03:08:36.952Z,99090.75
2022-12-15T03:11:25.836Z,99093.84
2022-12-15T03:14:08.049Z,99089.16
2022-12-15T03:16:56.796Z,99096.69
2022-12-15T03:19:45.844Z,99098.06
2022-12-15T03:22:37.959Z,99091.97
2022-12-15T03:25:20.631Z,99103.59
2022-12-15T03:28:09.026Z,99099.50
2022-12-15T03:30:50.884Z,99109.69
2022-12-15T03:33:42.117Z,99111.53
2022-12-15T03:36:23.780Z,99115.69
2022-12-15T03:39:13.424Z,99123.00
2022-12-15T03:41:55.768Z,99115.84
2022-12-15T03:44:37.948Z,99121.59
2022-12-15T03:47:26.701Z,99126.44
2022-12-15T03:50:16.062Z,99133.06
2022-12-15T03:53:02.715Z,99127.16
2022-12-15T03:55:50.941Z,99135.38
2022-12-15T03:58:33.151Z,99139.44
2022-12-15T04:01:43.159Z,99141.84
2022-12-15T04:04:24.769Z,99141.31
2022-12-15T04:07:06.894Z,99141.44
2022-12-15T04:09:55.709Z,99140.81
2022-12-15T04:12:43.976Z,99143.09
2022-12-15T04:15:27.029Z,99142.22
2022-12-15T04:18:18.085Z,99140.28
2022-12-15T04:21:00.788Z,99143.84
2022-12-15T04:24:07.213Z,99146.06
2022-12-15T04:27:07.616Z,99147.25
2022-12-15T04:30:14.652Z,99152.63
2022-12-15T04:33:16.483Z,99153.47
2022-12-15T04:36:23.631Z,99156.69
2022-12-15T04:39:25.226Z,99154.41
2022-12-15T04:42:31.746Z,99150.06
2022-12-15T04:45:40.645Z,99154.16
2022-12-15T04:48:53.629Z,99152.03
2022-12-15T04:52:00.562Z,99154.66
2022-12-15T04:55:01.330Z,99159.78
2022-12-15T04:58:08.594Z,99164.94
2022-12-15T05:01:09.430Z,99168.66
2022-12-15T05:04:16.677Z,99162.66
2022-12-15T05:07:17.511Z,99167.03
2022-12-15T05:10:24.599Z,99163.19
2022-12-15T05:13:41.764Z,99167.59
2022-12-15T05:16:49.490Z,99165.41
2022-12-15T05:19:50.714Z,99164.28
2022-12-15T05:22:57.611Z,99161.56
2022-12-15T05:26:04.591Z,99160.75
2022-12-15T05:29:11.489Z,99161.28
2022-12-15T05:32:00.693Z,99151.75
2022-12-15T05:34:49.730Z,99157.13
2022-12-15T05:37:32.240Z,99141.53
2022-12-15T05:40:20.750Z,99138.53
2022-12-15T05:43:06.046Z,99130.25
2022-12-15T05:45:54.653Z,99138.25
2022-12-15T05:48:50.743Z,99131.56
2022-12-15T05:51:33.037Z,99120.44
2022-12-15T05:54:25.699Z,99119.41
2022-12-15T05:57:07.981Z,99118.94
2022-12-15T05:59:56.754Z,99113.13
2022-12-15T06:02:47.004Z,99103.59
2022-12-15T06:05:38.668Z,99093.44
2022-12-15T06:08:27.006Z,99089.59
2022-12-15T06:11:10.735Z,99086.88
2022-12-15T06:13:59.295Z,99076.44
2022-12-15T06:16:50.312Z,99080.66
2022-12-15T06:19:39.072Z,99071.78
2022-12-15T06:22:21.718Z,99062.75
2022-12-15T06:25:03.881Z,99062.25
2022-12-15T06:27:55.798Z,99051.34
2022-12-15T06:30:40.852Z,99057.66
2022-12-15T06:33:29.960Z,99056.38
2022-12-15T06:36:25.209Z,99050.59
2022-12-15T06:39:08.765Z,99045.34
2022-12-15T06:41:56.954Z,99038.53
2022-12-15T06:44:38.767Z,99045.09
2022-12-15T06:47:33.509Z,99040.06
2022-12-15T06:50:22.686Z,99038.97
2022-12-15T06:53:07.024Z,99023.91
2022-12-15T06:55:56.754Z,99017.38
2022-12-15T06:58:39.030Z,99017.88
2022-12-15T07:01:31.803Z,99016.34
2022-12-15T07:04:14.051Z,99017.63
2022-12-15T07:07:02.754Z,99010.13
2022-12-15T07:09:51.617Z,99003.00
2022-12-15T07:12:33.860Z,99000.72
2022-12-15T07:15:22.574Z,99002.84
2022-12-15T07:18:11.974Z,98999.41
2022-12-15T07:20:54.743Z,98994.19
2022-12-15T07:23:54.770Z,98992.13
2022-12-15T07:26:38.723Z,98979.13
2022-12-15T07:29:27.075Z,98985.19
2022-12-15T07:32:09.656Z,98976.03
2022-12-15T07:34:57.972Z,98972.34
2022-12-15T07:37:40.758Z,98969.88
2022-12-15T07:40:23.054Z,98955.84
2022-12-15T07:43:11.740Z,98962.34
2022-12-15T07:45:55.196Z,98960.00
2022-12-15T07:48:43.689Z,98959.56
2022-12-15T07:51:25.977Z,98954.00
2022-12-15T07:54:14.695Z,98950.34
2022-12-15T07:56:56.929Z,98951.00
2022-12-15T07:59:45.741Z,98939.97
2022-12-15T08:02:28.067Z,98935.31
2022-12-15T08:05:16.748Z,98926.84
2022-12-15T08:08:08.493Z,98921.84
2022-12-15T08:10:54.691Z,98912.56
2022-12-15T08:16:47.040Z,98908.09
2022-12-15T08:19:35.845Z,98915.31
2022-12-15T08:22:18.003Z,98920.13
2022-12-15T08:25:06.654Z,98906.69
2022-12-15T08:27:48.962Z,98902.75
2022-12-15T08:30:37.751Z,98899.28
2022-12-15T08:33:19.986Z,98901.34
2022-12-15T08:36:10.703Z,98884.00
2022-12-15T08:38:54.047Z,98878.84
2022-12-15T08:41:42.710Z,98884.72
2022-12-15T08:44:24.970Z,98874.66
2022-12-15T08:47:13.644Z,98874.50
2022-12-15T08:50:01.993Z,98875.72
2022-12-15T08:53:13.789Z,98884.03
2022-12-15T08:55:58.066Z,98872.94
2022-12-15T08:58:40.724Z,98883.72
2022-12-15T09:01:33.096Z,98874.88
2022-12-15T09:04:15.850Z,98864.16
2022-12-15T09:06:58.120Z,98867.19
2022-12-15T09:09:46.842Z,98855.66
2022-12-15T09:12:29.334Z,98859.72
2022-12-15T09:15:18.751Z,98856.25
2022-12-15T09:18:07.048Z,98845.66
2022-12-15T09:20:48.700Z,98835.22
2022-12-15T09:23:37.800Z,98844.53
2022-12-15T09:26:22.043Z,98842.25
2022-12-15T09:29:10.649Z,98835.84
2022-12-15T09:31:52.986Z,98836.53
2022-12-15T09:34:41.705Z,98827.66
2022-12-15T09:37:23.948Z,98824.91
2022-12-15T09:40:14.651Z,98826.38
2022-12-15T09:43:32.948Z,98825.31
2022-12-15T09:46:49.853Z,98826.97
2022-12-15T09:49:56.140Z,98826.94
2022-12-15T09:52:49.630Z,98826.34
2022-12-15T09:55:33.918Z,98820.63
2022-12-15T09:58:50.563Z,98815.75
2022-12-15T10:01:57.001Z,98812.69
2022-12-15T10:05:01.969Z,98812.28
2022-12-15T10:07:50.475Z,98815.72
2022-12-15T10:10:42.715Z,98816.94
2022-12-15T10:13:42.975Z,98815.63
2022-12-15T10:16:31.109Z,98808.19
2022-12-15T10:19:36.942Z,98805.31
2022-12-15T10:22:29.717Z,98805.31
2022-12-15T10:25:30.190Z,98804.09
2022-12-15T10:28:25.754Z,98804.19
2022-12-15T10:31:36.977Z,98806.53
2022-12-15T10:34:43.681Z,98800.53
2022-12-15T10:37:25.912Z,98801.34
2022-12-15T10:40:14.892Z,98806.47
2022-12-15T10:42:56.919Z,98806.56
2022-12-15T10:45:53.641Z,98803.75
2022-12-15T10:48:48.714Z,98802.44
2022-12-15T10:51:44.587Z,98802.66
2022-12-15T10:54:33.187Z,98802.94
2022-12-15T10:57:50.730Z,98796.50
2022-12-15T11:00:34.633Z,98801.00
2022-12-15T11:03:40.374Z,98796.28
2022-12-15T11:06:42.769Z,98793.06
2022-12-15T11:09:40.898Z,98786.38
2022-12-15T11:12:51.820Z,98791.97
2022-12-15T11:15:52.497Z,98782.97
2022-12-15T11:18:48.731Z,98787.44
2022-12-15T11:21:54.585Z,98781.63
2022-12-15T11:24:49.648Z,98785.63
2022-12-15T11:27:46.798Z,98781.00
2022-12-15T11:30:33.562Z,98784.19
2022-12-15T11:33:22.645Z,98781.81
2022-12-15T11:36:17.740Z,98794.78
2022-12-15T11:39:18.307Z,98795.97
2022-12-15T11:42:31.602Z,98795.00
2022-12-15T11:45:38.693Z,98787.97
2022-12-15T11:48:23.960Z,98797.66
2022-12-15T11:51:15.785Z,98791.44
2022-12-15T11:54:10.071Z,98793.19
2022-12-15T11:57:18.674Z,98787.72
2022-12-15T12:00:20.386Z,98784.56
2022-12-15T12:03:33.693Z,98782.69
2022-12-15T12:06:54.021Z,98791.19
2022-12-15T12:09:50.656Z,98783.84
2022-12-15T12:12:42.652Z,98793.66
2022-12-15T12:15:37.052Z,98786.06
2022-12-15T12:18:46.732Z,98787.19
2022-12-15T12:21:57.265Z,98783.66
2022-12-15T12:24:48.968Z,98791.31
2022-12-15T12:27:57.386Z,98785.03
2022-12-15T12:31:00.685Z,98793.19
2022-12-15T12:33:50.437Z,98787.72
2022-12-15T12:36:39.667Z,98799.16
2022-12-15T12:39:33.108Z,98796.16
2022-12-15T12:42:23.675Z,98800.78
2022-12-15T12:45:13.229Z,98801.84
2022-12-15T12:48:10.718Z,98797.25
2022-12-15T12:50:54.820Z,98803.47
2022-12-15T12:53:48.683Z,98805.06
2022-12-15T12:56:50.699Z,98800.97
2022-12-15T12:59:48.911Z,98814.03
2022-12-15T13:02:40.095Z,98817.28
2022-12-15T13:05:43.622Z,98821.06
2022-12-15T13:08:51.076Z,98824.88
2022-12-15T13:12:27.589Z,98831.41
2022-12-15T13:15:32.669Z,98833.84
2022-12-15T13:18:36.924Z,98833.00
2022-12-15T13:21:51.639Z,98834.91
2022-12-15T13:24:43.119Z,98828.66
2022-12-15T13:27:32.131Z,98823.19
2022-12-15T13:30:17.015Z,98831.88
2022-12-15T13:33:26.719Z,98830.28
2022-12-15T13:36:08.971Z,98832.34
2022-12-15T13:39:03.685Z,98838.84
2022-12-15T13:45:05.721Z,98843.94
2022-12-15T13:48:08.535Z,98847.50
2022-12-15T13:51:29.684Z,98843.66
2022-12-15T13:54:22.957Z,98842.84
2022-12-15T13:57:17.676Z,98850.41
2022-12-15T14:00:19.475Z,98852.31
2022-12-15T14:03:19.781Z,98855.56
2022-12-15T14:06:07.989Z,98850.66
2022-12-15T14:08:56.594Z,98852.84
2022-12-15T14:14:59.600Z,98853.28
2022-12-15T14:17:51.686Z,98856.50
2022-12-15T14:20:42.027Z,98859.25
2022-12-15T14:24:04.069Z,98857.53
2022-12-15T14:26:46.011Z,98865.69
2022-12-15T14:29:39.720Z,98858.63
2022-12-15T14:32:22.998Z,98851.03
2022-12-15T14:35:11.660Z,98866.53
2022-12-15T14:37:56.192Z,98857.53
2022-12-15T14:40:45.725Z,98861.59
2022-12-15T14:44:32.222Z,98861.41
2022-12-15T14:46:54.894Z,98865.22
2022-12-15T14:49:47.634Z,98859.31
2022-12-15T14:52:48.811Z,98859.06
2022-12-15T14:55:47.436Z,98860.47
2022-12-15T14:58:48.669Z,98859.44
2022-12-15T15:02:07.848Z,98865.22
2022-12-15T15:03:16.506Z,98854.47
2022-12-15T15:05:32.688Z,98860.09
2022-12-15T15:08:18.998Z,98863.56
2022-12-15T15:11:27.777Z,98856.69
2022-12-15T15:14:21.011Z,98853.66
2022-12-15T15:17:16.716Z,98860.72
2022-12-15T15:20:10.911Z,98859.91
2022-12-15T15:23:23.603Z,98854.44
2022-12-15T15:26:22.618Z,98857.34
2022-12-15T15:29:06.542Z,98859.78
2022-12-15T15:31:55.732Z,98862.50
2022-12-15T15:34:37.996Z,98861.66
2022-12-15T15:37:31.635Z,98866.84
2022-12-15T15:40:17.014Z,98864.19
2022-12-15T15:42:59.738Z,98863.22
2022-12-15T15:45:42.617Z,98866.00
2022-12-15T15:48:38.745Z,98861.34
2022-12-15T15:51:22.090Z,98856.16
2022-12-15T15:54:16.662Z,98858.88
2022-12-15T15:56:59.035Z,98854.28
2022-12-15T15:59:49.698Z,98861.91
2022-12-15T16:02:32.091Z,98857.59
2022-12-15T16:05:21.630Z,98852.41
2022-12-15T16:08:04.959Z,98859.50
2022-12-15T16:10:55.622Z,98857.78
2022-12-15T16:13:37.920Z,98859.44
2022-12-15T16:16:32.818Z,98852.31
2022-12-15T16:19:15.137Z,98852.78
2022-12-15T16:22:03.700Z,98847.31
2022-12-15T16:24:45.956Z,98850.00
2022-12-15T16:27:35.815Z,98840.25
2022-12-15T16:30:28.010Z,98845.06
2022-12-15T16:33:17.691Z,98846.06
2022-12-15T16:36:01.037Z,98844.38
2022-12-15T16:38:51.639Z,98856.06
2022-12-15T16:41:34.045Z,98859.81
2022-12-15T16:44:22.911Z,98864.28
2022-12-15T16:47:06.049Z,98859.94
2022-12-15T16:49:54.662Z,98854.72
2022-12-15T16:52:36.989Z,98856.09
2022-12-15T16:55:43.579Z,98861.94
2022-12-15T16:58:26.287Z,98862.25
2022-12-15T17:01:16.897Z,98863.94
2022-12-15T17:03:59.137Z,98860.97
2022-12-15T17:06:47.608Z,98864.28
2022-12-15T17:09:37.780Z,98861.28
2022-12-15T17:12:26.650Z,98866.88
2022-12-15T17:15:09.021Z,98865.19
2022-12-15T17:17:58.600Z,98871.69
2022-12-15T17:20:41.045Z,98858.63
2022-12-15T17:23:32.938Z,98869.06
2022-12-15T17:26:28.642Z,98861.22
2022-12-15T17:29:22.203Z,98853.38
2022-12-15T17:32:10.682Z,98850.09
2022-12-15T17:34:53.987Z,98847.94
2022-12-15T17:37:43.033Z,98852.19
2022-12-15T17:40:25.717Z,98839.72
2022-12-15T17:43:14.678Z,98839.97
2022-12-15T17:46:04.149Z,98850.28
2022-12-15T17:48:45.665Z,98844.53
2022-12-15T17:51:40.555Z,98837.69
2022-12-15T17:54:29.641Z,98841.06
2022-12-15T17:57:12.081Z,98836.16
2022-12-15T18:00:00.799Z,98838.47
2022-12-15T18:02:49.857Z,98830.31
2022-12-15T18:05:39.063Z,98833.66
2022-12-15T18:08:41.713Z,98826.09
2022-12-15T18:11:32.959Z,98827.13
2022-12-15T18:14:23.620Z,98825.34
2022-12-15T18:17:16.159Z,98825.03
2022-12-15T18:20:04.844Z,98826.28
2022-12-15T18:22:56.020Z,98823.56
2022-12-15T18:25:39.487Z,98814.03
2022-12-15T18:28:32.735Z,98814.16
2022-12-15T18:31:27.277Z,98817.38
2022-12-15T18:34:25.653Z,98812.44
2022-12-15T18:37:08.115Z,98824.53
2022-12-15T18:40:03.985Z,98824.22
2022-12-15T18:42:46.998Z,98830.72
2022-12-15T18:45:36.561Z,98816.41
2022-12-15T18:48:45.494Z,98815.06
2022-12-15T18:51:34.658Z,98808.41
2022-12-15T18:54:27.996Z,98811.16
2022-12-15T18:57:31.761Z,98803.69
2022-12-15T19:00:25.572Z,98804.75
2022-12-15T19:03:14.547Z,98800.78
2022-12-15T19:06:11.719Z,98811.47
2022-12-15T19:09:03.473Z,98821.41
2022-12-15T19:12:06.778Z,98806.91
2022-12-15T19:14:59.665Z,98809.97
2022-12-15T19:18:00.536Z,98811.22
2022-12-15T19:21:22.636Z,98812.50
2022-12-15T19:24:04.874Z,98813.03
2022-12-15T19:26:53.564Z,98813.19
2022-12-15T19:29:35.940Z,98815.16
2022-12-15T19:32:24.607Z,98811.53
2022-12-15T19:35:06.987Z,98813.66
2022-12-15T19:37:57.613Z,98804.59
2022-12-15T19:40:41.951Z,98803.50
2022-12-15T19:43:32.273Z,98800.91
2022-12-15T19:46:18.145Z,98798.69
2022-12-15T19:49:06.590Z,98798.06
2022-12-15T19:51:55.564Z,98795.38
2022-12-15T19:54:43.984Z,98793.19
2022-12-15T19:57:28.565Z,98796.31
2022-12-15T20:00:31.822Z,98792.91
2022-12-15T20:03:20.546Z,98794.03
2022-12-15T20:06:04.267Z,98790.53
2022-12-15T20:08:57.519Z,98793.63
2022-12-15T20:11:46.625Z,98803.50
2022-12-15T20:14:29.084Z,98799.75
2022-12-15T20:17:17.519Z,98798.44
2022-12-15T20:20:00.010Z,98794.84
2022-12-15T20:22:48.598Z,98799.75
2022-12-15T20:25:35.352Z,98792.28
2022-12-15T20:28:28.645Z,98797.47
2022-12-15T20:31:10.930Z,98797.25
2022-12-15T20:33:59.569Z,98794.47
2022-12-15T20:36:41.980Z,98788.31
2022-12-15T20:39:38.530Z,98790.69
2022-12-15T20:42:31.510Z,98792.84
2022-12-15T20:45:26.946Z,98786.97
2022-12-15T20:48:10.968Z,98780.84
2022-12-15T20:51:01.837Z,98785.16
2022-12-15T20:53:46.551Z,98783.50
2022-12-15T20:56:29.867Z,98781.78
2022-12-15T20:59:18.521Z,98781.44
2022-12-15T21:02:07.835Z,98783.69
2022-12-15T21:04:49.873Z,98784.84
2022-12-15T21:07:38.600Z,98784.84
2022-12-15T21:10:29.523Z,98782.69
2022-12-15T21:13:27.371Z,98782.72
2022-12-15T21:16:10.474Z,98797.75
2022-12-15T21:22:04.626Z,98791.72
2022-12-15T21:24:53.846Z,98790.91
2022-12-15T21:27:36.638Z,98784.31
2022-12-15T21:30:22.819Z,98778.91
2022-12-15T21:33:11.451Z,98781.53
2022-12-15T21:35:59.951Z,98785.97
2022-12-15T21:38:47.640Z,98776.53
2022-12-15T21:41:29.849Z,98772.03
2022-12-15T21:44:18.645Z,98773.91
2022-12-15T21:47:01.007Z,98768.91
2022-12-15T21:49:49.583Z,98764.31
2022-12-15T21:52:39.589Z,98754.66
2022-12-15T21:55:33.554Z,98755.75
2022-12-15T21:58:25.441Z,98759.69
2022-12-15T22:01:15.682Z,98749.66
2022-12-15T22:04:08.826Z,98752.47
2022-12-15T22:06:51.641Z,98743.47
2022-12-15T22:09:33.770Z,98742.72
2022-12-15T22:12:34.496Z,98733.78
2022-12-15T22:15:28.679Z,98738.06
2022-12-15T22:18:19.597Z,98736.09
2022-12-15T22:21:01.769Z,98735.53
2022-12-15T22:23:50.542Z,98739.41
2022-12-15T22:26:40.536Z,98734.47
2022-12-15T22:29:32.868Z,98725.78
2022-12-15T22:32:22.578Z,98718.56
2022-12-15T22:35:04.838Z,98717.25
2022-12-15T22:37:55.259Z,98710.19
2022-12-15T22:40:37.855Z,98713.59
2022-12-15T22:43:33.650Z,98708.75
2022-12-15T22:46:19.997Z,98703.56
2022-12-15T22:49:08.489Z,98706.59
2022-12-15T22:51:50.927Z,98694.63
2022-12-15T22:54:45.505Z,98697.59
2022-12-15T22:57:45.848Z,98695.97
2022-12-15T23:00:34.564Z,98690.69
2022-12-15T23:03:25.838Z,98701.19
2022-12-15T23:06:07.966Z,98697.25
2022-12-15T23:08:59.599Z,98693.91
2022-12-15T23:11:47.854Z,98690.03
2022-12-15T23:14:49.540Z,98691.53
2022-12-15T23:17:31.736Z,98689.06
2022-12-15T23:20:21.438Z,98692.16
2022-12-15T23:23:04.405Z,98689.72
2022-12-15T23:25:54.506Z,98690.28
2022-12-15T23:28:37.496Z,98690.69
2022-12-15T23:31:26.658Z,98688.53
2022-12-15T23:34:16.593Z,98687.91
2022-12-15T23:37:05.608Z,98682.16
2022-12-15T23:39:54.480Z,98673.50
2022-12-15T23:42:36.916Z,98681.72
2022-12-15T23:45:25.513Z,98678.47
2022-12-15T23:48:08.698Z,98687.91
2022-12-15T23:50:57.516Z,98688.38
2022-12-15T23:53:40.887Z,98687.06
2022-12-15T23:56:32.468Z,98692.38
2022-12-15T23:59:21.621Z,98700.59
